createdAt,value
2018-04-14T00:00:25.804Z,90.49
2018-04-14T00:01:06.319Z,90.68
2018-04-14T00:01:46.839Z,90.39
2018-04-14T00:02:27.374Z,90.97
2018-04-14T00:03:07.896Z,90.78
2018-04-14T00:03:48.415Z,90.88
2018-04-14T00:04:28.935Z,90.78
2018-04-14T00:05:09.459Z,91.06
2018-04-14T00:05:49.998Z,90.78
2018-04-14T00:06:30.519Z,90.78
2018-04-14T00:07:11.040Z,90.78
2018-04-14T00:07:51.559Z,91.25
2018-04-14T00:08:32.073Z,90.59
2018-04-14T00:09:12.587Z,90.68
2018-04-14T00:09:53.099Z,90.68
2018-04-14T00:10:33.608Z,90.68
2018-04-14T00:11:14.161Z,90.49
2018-04-14T00:11:54.645Z,90.59
2018-04-14T00:12:35.198Z,90.01
2018-04-14T00:13:15.708Z,90.11
2018-04-14T00:13:56.226Z,90.3
2018-04-14T00:14:36.747Z,90.59
2018-04-14T00:15:17.262Z,90.49
2018-04-14T00:15:57.778Z,90.78
2018-04-14T00:16:38.302Z,90.49
2018-04-14T00:17:18.858Z,90.78
2018-04-14T00:17:59.406Z,90.49
2018-04-14T00:18:39.929Z,90.68
2018-04-14T00:19:20.439Z,90.2
2018-04-14T00:20:00.962Z,90.2
2018-04-14T00:20:41.474Z,90.01
2018-04-14T00:21:22.001Z,90.2
2018-04-14T00:22:02.517Z,90.11
2018-04-14T00:22:43.037Z,89.92
2018-04-14T00:23:23.572Z,89.97
2018-04-14T00:24:04.081Z,89.53
2018-04-14T00:24:44.605Z,89.34
2018-04-14T00:25:25.133Z,89.2
2018-04-14T00:26:05.660Z,89.68
2018-04-14T00:26:46.185Z,89.82
2018-04-14T00:27:26.706Z,89.97
2018-04-14T00:28:07.212Z,89.34
2018-04-14T00:28:47.729Z,89.63
2018-04-14T00:29:28.238Z,89.25
2018-04-14T00:30:08.753Z,89.15
2018-04-14T00:30:49.267Z,89.06
2018-04-14T00:31:29.787Z,89.2
2018-04-14T00:32:10.318Z,89.11
2018-04-14T00:32:50.843Z,89.68
2018-04-14T00:33:31.363Z,89.78
2018-04-14T00:34:11.914Z,89.25
2018-04-14T00:34:52.428Z,89.15
2018-04-14T00:35:32.937Z,89.25
2018-04-14T00:36:13.457Z,88.58
2018-04-14T00:36:53.976Z,88.58
2018-04-14T00:37:34.495Z,88.87
2018-04-14T00:38:15.015Z,88.2
2018-04-14T00:38:55.529Z,88.44
2018-04-14T00:39:36.046Z,88.73
2018-04-14T00:40:16.554Z,89.2
2018-04-14T00:40:57.083Z,88.96
2018-04-14T00:41:37.600Z,89.15
2018-04-14T00:42:18.125Z,89.25
2018-04-14T00:42:58.688Z,88.58
2018-04-14T00:43:39.213Z,88.39
2018-04-14T00:44:19.739Z,88.29
2018-04-14T00:45:00.251Z,88.1
2018-04-14T00:45:40.771Z,88.82
2018-04-14T00:46:21.291Z,89.11
2018-04-14T00:47:01.810Z,89.3
2018-04-14T00:47:42.324Z,89.01
2018-04-14T00:48:22.846Z,89.3
2018-04-14T00:49:03.380Z,89.3
2018-04-14T00:49:43.899Z,89.3
2018-04-14T00:50:24.412Z,88.92
2018-04-14T00:51:04.922Z,89.2
2018-04-14T00:51:45.445Z,89.2
2018-04-14T00:52:25.963Z,89.01
2018-04-14T00:53:06.469Z,88.77
2018-04-14T00:53:46.996Z,88.25
2018-04-14T00:54:27.503Z,88.82
2018-04-14T00:55:08.024Z,88.82
2018-04-14T00:55:48.544Z,88.73
2018-04-14T00:56:29.070Z,88.82
2018-04-14T00:57:09.586Z,88.34
2018-04-14T00:57:50.108Z,88.15
2018-04-14T00:58:30.635Z,88.15
2018-04-14T00:59:11.173Z,88.06
2018-04-14T00:59:51.701Z,87.96
2018-04-14T01:00:32.208Z,88.15
2018-04-14T01:01:12.736Z,88.15
2018-04-14T01:01:53.254Z,88.34
2018-04-14T01:02:33.770Z,88.73
2018-04-14T01:03:14.287Z,88.82
2018-04-14T01:03:54.799Z,88.82
2018-04-14T01:05:47.472Z,88.1
2018-04-14T01:06:27.988Z,87.48
2018-04-14T01:07:08.505Z,88.25
2018-04-14T01:07:49.028Z,87.87
2018-04-14T01:08:29.546Z,88.34
2018-04-14T01:09:10.068Z,88.34
2018-04-14T01:09:50.580Z,88.44
2018-04-14T01:10:31.103Z,88.06
2018-04-14T01:11:11.624Z,88.15
2018-04-14T01:11:52.154Z,88.34
2018-04-14T01:12:32.680Z,88.44
2018-04-14T01:13:13.197Z,88.15
2018-04-14T01:13:53.728Z,87.96
2018-04-14T01:14:34.247Z,88.25
2018-04-14T01:15:14.773Z,87.87
2018-04-14T01:15:55.300Z,87.29
2018-04-14T01:16:35.818Z,87.1
2018-04-14T01:17:16.349Z,87.48
2018-04-14T01:17:56.863Z,87.87
2018-04-14T01:18:37.395Z,88.34
2018-04-14T01:19:17.905Z,88.44
2018-04-14T01:19:58.430Z,87.29
2018-04-14T01:20:38.941Z,87.68
2018-04-14T01:21:19.456Z,87.87
2018-04-14T01:21:59.972Z,87.1
2018-04-14T01:22:40.493Z,87.1
2018-04-14T01:23:21.003Z,87.68
2018-04-14T01:24:01.517Z,87.29
2018-04-14T01:24:42.027Z,87.29
2018-04-14T01:25:22.541Z,87.2
2018-04-14T01:26:03.058Z,87.2
2018-04-14T01:26:43.581Z,87.2
2018-04-14T01:27:24.102Z,87.1
2018-04-14T01:28:04.623Z,86.82
2018-04-14T01:28:45.147Z,87.29
2018-04-14T01:29:25.699Z,87.54
2018-04-14T01:30:06.195Z,87.29
2018-04-14T01:30:46.708Z,87.1
2018-04-14T01:31:27.231Z,87.39
2018-04-14T01:32:07.745Z,87.1
2018-04-14T01:32:48.263Z,87.39
2018-04-14T01:33:28.781Z,87.77
2018-04-14T01:34:09.294Z,87.48
2018-04-14T01:34:49.830Z,87.39
2018-04-14T01:35:30.351Z,87.77
2018-04-14T01:36:10.871Z,87.63
2018-04-14T01:36:51.388Z,87.54
2018-04-14T01:37:31.917Z,87.54
2018-04-14T01:38:12.453Z,87.44
2018-04-14T01:38:52.986Z,88.3
2018-04-14T01:39:33.505Z,87.92
2018-04-14T01:40:14.015Z,88.11
2018-04-14T01:40:54.540Z,88.2
2018-04-14T01:41:35.059Z,88.2
2018-04-14T01:42:15.595Z,88.11
2018-04-14T01:42:56.107Z,88.59
2018-04-14T01:43:36.636Z,88.01
2018-04-14T01:44:17.148Z,88.78
2018-04-14T01:44:57.673Z,89.06
2018-04-14T01:45:38.184Z,88.78
2018-04-14T01:46:18.702Z,88.97
2018-04-14T01:46:59.226Z,88.68
2018-04-14T01:47:39.741Z,88.49
2018-04-14T01:48:20.256Z,88.78
2018-04-14T01:49:00.767Z,89.01
2018-04-14T01:49:41.285Z,88.44
2018-04-14T01:50:21.807Z,88.25
2018-04-14T01:51:02.321Z,88.25
2018-04-14T01:51:42.838Z,88.06
2018-04-14T01:52:23.358Z,88.25
2018-04-14T01:53:03.881Z,88.01
2018-04-14T01:53:44.410Z,88.2
2018-04-14T01:54:24.926Z,88.01
2018-04-14T01:55:05.458Z,88.15
2018-04-14T01:55:45.979Z,88.3
2018-04-14T01:56:26.496Z,88.2
2018-04-14T01:57:07.015Z,88.25
2018-04-14T01:57:47.536Z,87.58
2018-04-14T01:58:28.047Z,87.39
2018-04-14T01:59:08.556Z,87.29
2018-04-14T01:59:49.063Z,87.58
2018-04-14T02:00:29.581Z,87.48
2018-04-14T02:01:10.105Z,87.35
2018-04-14T02:01:50.620Z,87.25
2018-04-14T02:02:31.137Z,87.44
2018-04-14T02:03:11.654Z,88.2
2018-04-14T02:03:52.175Z,88.11
2018-04-14T02:04:32.698Z,88.3
2018-04-14T02:05:13.219Z,88.11
2018-04-14T02:05:53.744Z,88.2
2018-04-14T02:06:34.256Z,88.4
2018-04-14T02:07:14.771Z,88.11
2018-04-14T02:07:55.292Z,88.11
2018-04-14T02:08:35.872Z,88.2
2018-04-14T02:09:16.393Z,88.54
2018-04-14T02:09:56.902Z,87.58
2018-04-14T02:10:37.418Z,87.2
2018-04-14T02:11:17.931Z,87.58
2018-04-14T02:11:58.450Z,87.48
2018-04-14T02:12:38.972Z,87.58
2018-04-14T02:13:19.495Z,87.68
2018-04-14T02:14:00.001Z,87.48
2018-04-14T02:14:40.514Z,87.54
2018-04-14T02:15:21.035Z,87.35
2018-04-14T02:16:01.551Z,87.44
2018-04-14T02:16:42.069Z,87.54
2018-04-14T02:17:22.594Z,87.35
2018-04-14T02:18:03.123Z,87.15
2018-04-14T02:18:43.636Z,88.11
2018-04-14T02:19:24.163Z,87.73
2018-04-14T02:20:04.671Z,87.54
2018-04-14T02:20:45.187Z,88.3
2018-04-14T02:21:25.699Z,87.92
2018-04-14T02:22:06.213Z,88.3
2018-04-14T02:22:46.731Z,88.2
2018-04-14T02:23:27.244Z,88.4
2018-04-14T02:24:07.762Z,88.4
2018-04-14T02:24:48.278Z,88.2
2018-04-14T02:25:28.795Z,88.49
2018-04-14T02:26:09.304Z,88.2
2018-04-14T02:26:49.817Z,88.11
2018-04-14T02:27:30.343Z,88.4
2018-04-14T02:28:10.863Z,88.68
2018-04-14T02:28:51.385Z,88.4
2018-04-14T02:29:31.903Z,88.49
2018-04-14T02:30:12.407Z,88.49
2018-04-14T02:30:52.933Z,88.97
2018-04-14T02:31:33.447Z,88.3
2018-04-14T02:32:13.968Z,88.4
2018-04-14T02:32:54.492Z,88.2
2018-04-14T02:33:35.013Z,88.4
2018-04-14T02:34:15.530Z,88.4
2018-04-14T02:34:56.043Z,88.3
2018-04-14T02:35:36.553Z,87.92
2018-04-14T02:36:17.067Z,88.2
2018-04-14T02:36:57.590Z,88.11
2018-04-14T02:37:38.100Z,88.2
2018-04-14T02:38:18.620Z,88.2
2018-04-14T02:38:59.153Z,88.3
2018-04-14T02:39:39.670Z,87.82
2018-04-14T02:40:20.189Z,87.44
2018-04-14T02:41:00.709Z,87.54
2018-04-14T02:41:41.227Z,87.35
2018-04-14T02:42:21.734Z,88.49
2018-04-14T02:43:02.253Z,87.44
2018-04-14T02:43:42.767Z,88.4
2018-04-14T02:44:23.281Z,87.35
2018-04-14T02:45:03.800Z,88.11
2018-04-14T02:45:44.317Z,88.11
2018-04-14T02:46:24.830Z,88.11
2018-04-14T02:47:05.347Z,88.4
2018-04-14T02:47:45.875Z,88.68
2018-04-14T02:48:26.397Z,88.4
2018-04-14T02:49:06.913Z,88.01
2018-04-14T02:49:47.431Z,88.3
2018-04-14T02:50:27.957Z,88.11
2018-04-14T02:51:08.470Z,87.87
2018-04-14T02:51:48.996Z,88.35
2018-04-14T02:52:29.496Z,88.83
2018-04-14T02:53:10.012Z,89.21
2018-04-14T02:53:50.523Z,88.87
2018-04-14T02:54:31.239Z,88.87
2018-04-14T02:55:11.774Z,88.45
2018-04-14T02:55:52.296Z,88.64
2018-04-14T02:56:32.809Z,88.64
2018-04-14T02:57:13.328Z,88.64
2018-04-14T02:57:53.837Z,89.02
2018-04-14T02:58:34.362Z,88.83
2018-04-14T02:59:14.881Z,88.3
2018-04-14T02:59:55.390Z,88.2
2018-04-14T03:00:35.937Z,88.49
2018-04-14T03:01:16.452Z,88.4
2018-04-14T03:01:56.968Z,88.11
2018-04-14T03:02:37.503Z,87.63
2018-04-14T03:03:18.010Z,87.44
2018-04-14T03:03:58.525Z,87.44
2018-04-14T03:04:39.034Z,86.96
2018-04-14T03:05:19.541Z,87.44
2018-04-14T03:06:00.076Z,87.54
2018-04-14T03:06:40.596Z,87.44
2018-04-14T03:07:21.120Z,87.54
2018-04-14T03:08:01.634Z,87.63
2018-04-14T03:08:42.155Z,87.54
2018-04-14T03:09:22.673Z,87.15
2018-04-14T03:10:03.183Z,87.63
2018-04-14T03:10:43.694Z,87.54
2018-04-14T03:11:24.218Z,87.54
2018-04-14T03:12:04.740Z,87.73
2018-04-14T03:12:45.257Z,87.25
2018-04-14T03:13:25.769Z,87.54
2018-04-14T03:14:06.293Z,87.25
2018-04-14T03:14:46.806Z,86.96
2018-04-14T03:15:27.320Z,87.15
2018-04-14T03:16:07.831Z,87.4
2018-04-14T03:16:48.343Z,88.16
2018-04-14T03:17:28.862Z,88.2
2018-04-14T03:18:09.388Z,88.3
2018-04-14T03:18:49.908Z,87.54
2018-04-14T03:19:30.420Z,87.25
2018-04-14T03:20:10.939Z,87.63
2018-04-14T03:20:51.612Z,87.3
2018-04-14T03:21:32.125Z,88.35
2018-04-14T03:22:12.643Z,88.26
2018-04-14T03:22:53.167Z,88.26
2018-04-14T03:23:33.681Z,88.3
2018-04-14T03:24:14.201Z,88.2
2018-04-14T03:24:54.719Z,87.87
2018-04-14T03:25:35.240Z,87.68
2018-04-14T03:26:15.754Z,88.45
2018-04-14T03:26:56.281Z,88.16
2018-04-14T03:27:36.794Z,87.97
2018-04-14T03:28:17.312Z,88.35
2018-04-14T03:28:57.840Z,88.26
2018-04-14T03:29:38.359Z,88.01
2018-04-14T03:30:18.874Z,87.25
2018-04-14T03:30:59.391Z,87.54
2018-04-14T03:31:39.907Z,87.4
2018-04-14T03:32:20.421Z,87.02
2018-04-14T03:33:00.932Z,87.4
2018-04-14T03:33:41.466Z,87.59
2018-04-14T03:34:21.983Z,87.44
2018-04-14T03:35:02.515Z,87.44
2018-04-14T03:35:43.041Z,87.44
2018-04-14T03:36:23.561Z,87.63
2018-04-14T03:37:04.075Z,87.21
2018-04-14T03:37:44.588Z,87.3
2018-04-14T03:38:25.106Z,87.4
2018-04-14T03:39:05.620Z,87.54
2018-04-14T03:39:46.137Z,87.4
2018-04-14T03:40:26.648Z,87.4
2018-04-14T03:41:07.155Z,87.97
2018-04-14T03:41:47.668Z,87.68
2018-04-14T03:42:28.193Z,87.3
2018-04-14T03:43:08.702Z,88.45
2018-04-14T03:43:49.226Z,87.44
2018-04-14T03:44:29.775Z,87.3
2018-04-14T03:45:10.301Z,87.25
2018-04-14T03:45:50.818Z,87.63
2018-04-14T03:46:31.439Z,87.44
2018-04-14T03:47:11.920Z,86.77
2018-04-14T03:47:52.491Z,87.21
2018-04-14T03:48:32.998Z,87.21
2018-04-14T03:49:13.512Z,87.02
2018-04-14T03:49:54.026Z,87.02
2018-04-14T03:50:34.549Z,87.49
2018-04-14T03:51:15.054Z,87.4
2018-04-14T03:51:55.578Z,87.87
2018-04-14T03:52:36.101Z,87.4
2018-04-14T03:53:16.618Z,87.4
2018-04-14T03:53:57.149Z,87.02
2018-04-14T03:54:37.667Z,86.87
2018-04-14T03:55:18.180Z,87.11
2018-04-14T03:55:58.691Z,87.21
2018-04-14T03:56:39.212Z,87.21
2018-04-14T03:57:19.747Z,87.4
2018-04-14T03:58:00.258Z,86.92
2018-04-14T03:58:40.773Z,87.11
2018-04-14T03:59:21.301Z,86.82
2018-04-14T04:00:01.821Z,87.35
2018-04-14T04:00:42.343Z,86.44
2018-04-14T04:01:22.880Z,87.02
2018-04-14T04:02:03.394Z,87.21
2018-04-14T04:02:43.917Z,86.92
2018-04-14T04:03:24.451Z,87.21
2018-04-14T04:04:04.981Z,86.54
2018-04-14T04:04:45.486Z,86.63
2018-04-14T04:05:26.005Z,86.77
2018-04-14T04:06:06.523Z,86.92
2018-04-14T04:06:47.031Z,86.44
2018-04-14T04:07:27.555Z,86.82
2018-04-14T04:08:08.069Z,86.73
2018-04-14T04:08:48.594Z,86.63
2018-04-14T04:09:29.113Z,86.82
2018-04-14T04:10:09.629Z,87.21
2018-04-14T04:10:50.151Z,86.92
2018-04-14T04:11:30.671Z,86.54
2018-04-14T04:12:11.194Z,86.82
2018-04-14T04:12:51.699Z,87.21
2018-04-14T04:13:32.224Z,86.54
2018-04-14T04:14:12.735Z,87.02
2018-04-14T04:14:53.243Z,86.82
2018-04-14T04:15:33.768Z,86.73
2018-04-14T04:16:14.280Z,86.73
2018-04-14T04:16:54.800Z,86.63
2018-04-14T04:17:35.316Z,86.92
2018-04-14T04:18:15.826Z,86.73
2018-04-14T04:18:56.344Z,86.82
2018-04-14T04:19:36.861Z,86.82
2018-04-14T04:20:17.370Z,87.02
2018-04-14T04:20:57.889Z,86.82
2018-04-14T04:21:38.397Z,86.44
2018-04-14T04:22:18.929Z,86.16
2018-04-14T04:22:59.452Z,86.44
2018-04-14T04:23:39.961Z,86.54
2018-04-14T04:24:20.487Z,87.11
2018-04-14T04:25:01.001Z,86.92
2018-04-14T04:25:41.530Z,86.73
2018-04-14T04:26:22.054Z,86.82
2018-04-14T04:27:02.561Z,87.21
2018-04-14T04:27:43.090Z,87.02
2018-04-14T04:28:23.608Z,86.44
2018-04-14T04:29:04.129Z,86.73
2018-04-14T04:29:44.633Z,86.92
2018-04-14T04:30:25.150Z,86.63
2018-04-14T04:31:05.668Z,87.21
2018-04-14T04:31:46.187Z,87.02
2018-04-14T04:32:26.699Z,87.02
2018-04-14T04:33:07.232Z,87.4
2018-04-14T04:33:47.741Z,87.49
2018-04-14T04:34:28.263Z,87.26
2018-04-14T04:35:08.783Z,87.49
2018-04-14T04:35:49.293Z,87.3
2018-04-14T04:36:29.807Z,87.59
2018-04-14T04:37:10.315Z,87.49
2018-04-14T04:37:50.847Z,87.4
2018-04-14T04:38:31.365Z,87.21
2018-04-14T04:39:11.878Z,86.73
2018-04-14T04:39:52.400Z,86.54
2018-04-14T04:40:32.927Z,86.63
2018-04-14T04:41:13.438Z,86.63
2018-04-14T04:41:53.958Z,86.73
2018-04-14T04:42:34.467Z,86.63
2018-04-14T04:43:14.987Z,86.54
2018-04-14T04:43:55.509Z,86.73
2018-04-14T04:44:36.024Z,86.73
2018-04-14T04:45:16.537Z,86.63
2018-04-14T04:45:57.044Z,86.73
2018-04-14T04:46:37.581Z,86.82
2018-04-14T04:47:18.091Z,86.44
2018-04-14T04:47:58.598Z,86.54
2018-04-14T04:48:39.109Z,86.44
2018-04-14T04:49:19.642Z,86.25
2018-04-14T04:50:00.161Z,85.49
2018-04-14T04:50:40.687Z,85.97
2018-04-14T04:51:21.234Z,85.97
2018-04-14T04:52:01.756Z,85.97
2018-04-14T04:52:42.279Z,85.49
2018-04-14T04:53:22.799Z,85.68
2018-04-14T04:54:03.309Z,85.97
2018-04-14T04:54:43.836Z,86.16
2018-04-14T04:55:24.351Z,86.06
2018-04-14T04:56:04.872Z,85.77
2018-04-14T04:56:45.389Z,86.06
2018-04-14T04:57:25.897Z,85.68
2018-04-14T04:58:06.415Z,86.25
2018-04-14T04:58:46.929Z,86.63
2018-04-14T04:59:27.445Z,86.35
2018-04-14T05:00:07.971Z,86.25
2018-04-14T05:00:48.476Z,86.25
2018-04-14T05:01:29.000Z,86.35
2018-04-14T05:02:09.530Z,86.06
2018-04-14T05:02:50.045Z,85.87
2018-04-14T05:03:30.564Z,85.97
2018-04-14T05:04:11.073Z,86.35
2018-04-14T05:04:51.612Z,86.06
2018-04-14T05:05:32.132Z,86.06
2018-04-14T05:06:12.667Z,86.16
2018-04-14T05:06:53.188Z,85.97
2018-04-14T05:07:33.712Z,86.16
2018-04-14T05:08:14.240Z,85.97
2018-04-14T05:08:54.769Z,86.25
2018-04-14T05:09:35.283Z,85.68
2018-04-14T05:10:15.801Z,85.87
2018-04-14T05:10:56.332Z,85.58
2018-04-14T05:11:36.847Z,85.49
2018-04-14T05:12:17.372Z,85.49
2018-04-14T05:12:57.934Z,85.97
2018-04-14T05:13:38.463Z,85.77
2018-04-14T05:14:18.988Z,85.49
2018-04-14T05:14:59.513Z,85.39
2018-04-14T05:15:40.029Z,85.63
2018-04-14T05:16:20.567Z,85.49
2018-04-14T05:17:01.089Z,85.97
2018-04-14T05:17:41.603Z,85.68
2018-04-14T05:18:22.129Z,85.68
2018-04-14T05:19:02.644Z,85.44
2018-04-14T05:19:43.161Z,85.58
2018-04-14T05:20:23.678Z,85.49
2018-04-14T05:21:04.204Z,85.68
2018-04-14T05:21:44.722Z,85.77
2018-04-14T05:22:25.246Z,85.68
2018-04-14T05:23:05.756Z,85.58
2018-04-14T05:23:46.279Z,85.87
2018-04-14T05:24:26.785Z,85.87
2018-04-14T05:25:07.332Z,85.68
2018-04-14T05:25:47.847Z,85.63
2018-04-14T05:26:28.374Z,85.72
2018-04-14T05:27:08.891Z,85.44
2018-04-14T05:27:49.413Z,85.34
2018-04-14T05:28:29.932Z,85.53
2018-04-14T05:29:10.462Z,85.39
2018-04-14T05:29:50.982Z,85.72
2018-04-14T05:30:31.498Z,85.63
2018-04-14T05:31:12.013Z,85.53
2018-04-14T05:31:52.534Z,85.34
2018-04-14T05:32:33.043Z,85.44
2018-04-14T05:33:13.557Z,85.15
2018-04-14T05:33:54.077Z,85.53
2018-04-14T05:34:34.604Z,85.82
2018-04-14T05:35:15.119Z,85.72
2018-04-14T05:35:55.669Z,85.53
2018-04-14T05:36:36.182Z,85.34
2018-04-14T05:37:16.698Z,85.63
2018-04-14T05:37:57.250Z,85.63
2018-04-14T05:38:37.798Z,85.44
2018-04-14T05:39:18.332Z,85.44
2018-04-14T05:39:58.854Z,85.53
2018-04-14T05:40:39.372Z,85.44
2018-04-14T05:41:19.886Z,86.01
2018-04-14T05:42:00.402Z,85.63
2018-04-14T05:42:40.967Z,85.91
2018-04-14T05:43:21.430Z,85.72
2018-04-14T05:44:01.931Z,85.72
2018-04-14T05:44:42.446Z,85.63
2018-04-14T05:45:22.966Z,85.82
2018-04-14T05:46:03.483Z,85.72
2018-04-14T05:46:43.999Z,85.15
2018-04-14T05:47:24.519Z,84.67
2018-04-14T05:48:05.030Z,84.39
2018-04-14T05:48:45.549Z,83.53
2018-04-14T05:49:26.059Z,83.24
2018-04-14T05:50:06.573Z,83.91
2018-04-14T05:50:47.091Z,83.72
2018-04-14T05:51:27.615Z,84
2018-04-14T05:52:08.127Z,83.81
2018-04-14T05:52:48.637Z,83.24
2018-04-14T05:53:29.155Z,82.95
2018-04-14T05:54:09.650Z,83.34
2018-04-14T05:54:50.170Z,83.09
2018-04-14T05:55:30.688Z,82.86
2018-04-14T05:56:11.200Z,82.32
2018-04-14T05:56:51.735Z,82.32
2018-04-14T05:57:32.249Z,83.09
2018-04-14T05:58:12.774Z,82.9
2018-04-14T05:58:53.458Z,82.81
2018-04-14T05:59:33.961Z,82.81
2018-04-14T06:00:14.521Z,82.52
2018-04-14T06:00:55.028Z,82.61
2018-04-14T06:01:35.548Z,82.9
2018-04-14T06:02:16.061Z,83.09
2018-04-14T06:02:56.598Z,84.05
2018-04-14T06:03:37.109Z,83.67
2018-04-14T06:04:17.655Z,83.47
2018-04-14T06:04:58.161Z,83.76
2018-04-14T06:05:38.668Z,83.47
2018-04-14T06:06:19.194Z,82.61
2018-04-14T06:06:59.701Z,82.61
2018-04-14T06:07:40.218Z,82.04
2018-04-14T06:08:20.745Z,82.32
2018-04-14T06:09:01.261Z,82.42
2018-04-14T06:09:41.776Z,82.32
2018-04-14T06:10:22.288Z,82.61
2018-04-14T06:11:02.828Z,82.9
2018-04-14T06:11:43.342Z,82.32
2018-04-14T06:12:23.859Z,82.81
2018-04-14T06:13:04.390Z,83
2018-04-14T06:13:44.910Z,83
2018-04-14T06:14:25.441Z,83
2018-04-14T06:15:05.971Z,82.61
2018-04-14T06:15:46.492Z,82.71
2018-04-14T06:16:26.998Z,83
2018-04-14T06:17:07.517Z,82.37
2018-04-14T06:17:48.034Z,82.56
2018-04-14T06:18:28.564Z,82.56
2018-04-14T06:19:09.095Z,82.65
2018-04-14T06:19:49.600Z,82.28
2018-04-14T06:20:31.049Z,82.08
2018-04-14T06:21:11.575Z,82.56
2018-04-14T06:21:52.098Z,82.75
2018-04-14T06:22:32.619Z,82.37
2018-04-14T06:23:13.138Z,82.08
2018-04-14T06:23:53.655Z,82.08
2018-04-14T06:24:34.176Z,82.08
2018-04-14T06:25:14.700Z,81.99
2018-04-14T06:25:55.258Z,81.99
2018-04-14T06:26:35.781Z,82.08
2018-04-14T06:27:16.314Z,82.46
2018-04-14T06:27:56.820Z,82.6
2018-04-14T06:28:37.353Z,82.75
2018-04-14T06:29:17.995Z,82.46
2018-04-14T06:29:58.417Z,82.46
2018-04-14T06:30:38.946Z,83.13
2018-04-14T06:31:19.457Z,82.89
2018-04-14T06:31:59.973Z,82.75
2018-04-14T06:32:40.537Z,82.51
2018-04-14T06:33:21.009Z,81.93
2018-04-14T06:34:01.535Z,82.03
2018-04-14T06:34:42.062Z,82.37
2018-04-14T06:35:22.573Z,82.12
2018-04-14T06:36:03.100Z,81.65
2018-04-14T06:36:43.622Z,81.84
2018-04-14T06:37:24.137Z,81.74
2018-04-14T06:38:04.648Z,81.84
2018-04-14T06:38:45.195Z,81.93
2018-04-14T06:39:25.708Z,81.74
2018-04-14T06:40:06.209Z,81.84
2018-04-14T06:40:46.718Z,81.36
2018-04-14T06:41:27.243Z,81.45
2018-04-14T06:42:07.742Z,81.55
2018-04-14T06:42:48.267Z,81.93
2018-04-14T06:43:28.780Z,82.22
2018-04-14T06:44:09.313Z,81.55
2018-04-14T06:44:49.834Z,81.55
2018-04-14T06:45:30.341Z,81.74
2018-04-14T06:46:10.856Z,81.16
2018-04-14T06:46:51.385Z,81.45
2018-04-14T06:47:31.912Z,81.45
2018-04-14T06:48:12.428Z,81.16
2018-04-14T06:48:52.965Z,81.45
2018-04-14T06:49:33.514Z,80.98
2018-04-14T06:50:14.098Z,80.69
2018-04-14T06:50:54.550Z,80.21
2018-04-14T06:51:35.067Z,80.69
2018-04-14T06:52:15.584Z,80.5
2018-04-14T06:52:56.100Z,80.5
2018-04-14T06:53:36.636Z,80.92
2018-04-14T06:54:17.148Z,80.88
2018-04-14T06:54:57.661Z,81.11
2018-04-14T06:55:38.189Z,81.07
2018-04-14T06:56:18.713Z,80.63
2018-04-14T06:56:59.241Z,80.98
2018-04-14T06:57:39.789Z,81.16
2018-04-14T06:58:20.320Z,81.65
2018-04-14T06:59:00.840Z,81.45
2018-04-14T06:59:41.370Z,81.26
2018-04-14T07:00:21.901Z,81.45
2018-04-14T07:01:02.409Z,81.74
2018-04-14T07:01:42.949Z,81.36
2018-04-14T07:02:23.456Z,81.55
2018-04-14T07:03:03.975Z,81.93
2018-04-14T07:03:44.531Z,81.97
2018-04-14T07:04:25.084Z,81.68
2018-04-14T07:05:05.598Z,81.11
2018-04-14T07:05:46.132Z,80.92
2018-04-14T07:06:26.635Z,80.25
2018-04-14T07:07:07.155Z,80.44
2018-04-14T07:07:47.716Z,80.16
2018-04-14T07:08:28.243Z,80.19
2018-04-14T07:09:08.773Z,79.72
2018-04-14T07:09:49.367Z,79.81
2018-04-14T07:10:30.382Z,79.62
2018-04-14T07:11:11.984Z,78.86
2018-04-14T07:11:51.824Z,79.37
2018-04-14T07:12:32.346Z,79.37
2018-04-14T07:13:12.887Z,79.85
2018-04-14T07:13:53.408Z,79.37
2018-04-14T07:14:33.968Z,80.04
2018-04-14T07:15:14.500Z,78.99
2018-04-14T07:15:55.085Z,78.8
2018-04-14T07:16:35.613Z,78.32
2018-04-14T07:17:16.141Z,77.94
2018-04-14T07:17:56.718Z,77.84
2018-04-14T07:18:37.236Z,78.13
2018-04-14T07:19:17.774Z,78.22
2018-04-14T07:19:59.021Z,77.94
2018-04-14T07:20:39.688Z,78.13
2018-04-14T07:21:20.343Z,78.03
2018-04-14T07:22:00.864Z,78.8
2018-04-14T07:22:41.397Z,78.22
2018-04-14T07:23:21.909Z,78.51
2018-04-14T07:24:02.426Z,78.55
2018-04-14T07:24:42.942Z,77.97
2018-04-14T07:25:23.481Z,77.97
2018-04-14T07:26:04.014Z,78.17
2018-04-14T07:26:44.550Z,77.88
2018-04-14T07:27:25.058Z,77.78
2018-04-14T07:28:05.578Z,77.88
2018-04-14T07:28:46.093Z,77.59
2018-04-14T07:29:26.651Z,77.78
2018-04-14T07:30:07.166Z,77.59
2018-04-14T07:30:47.684Z,77.97
2018-04-14T07:31:28.210Z,77.53
2018-04-14T07:32:08.722Z,77.82
2018-04-14T07:32:49.256Z,78.02
2018-04-14T07:33:30.985Z,76.96
2018-04-14T07:34:11.503Z,77.06
2018-04-14T07:34:52.021Z,77.92
2018-04-14T07:35:32.539Z,76.77
2018-04-14T07:36:13.129Z,77.06
2018-04-14T07:36:53.643Z,77.34
2018-04-14T07:37:34.240Z,76.96
2018-04-14T07:38:14.675Z,77.53
2018-04-14T07:38:55.186Z,77.73
2018-04-14T07:39:35.699Z,77.44
2018-04-14T07:40:16.229Z,77.82
2018-04-14T07:40:56.740Z,77.73
2018-04-14T07:41:37.257Z,77.63
2018-04-14T07:42:17.790Z,78.2
2018-04-14T07:42:58.299Z,78.2
2018-04-14T07:43:38.814Z,78.4
2018-04-14T07:44:19.340Z,77.92
2018-04-14T07:44:59.917Z,78.02
2018-04-14T07:45:40.380Z,77.63
2018-04-14T07:46:20.956Z,78.49
2018-04-14T07:47:01.436Z,78.11
2018-04-14T07:47:41.962Z,77.15
2018-04-14T07:48:22.493Z,77.92
2018-04-14T07:49:03.009Z,77.63
2018-04-14T07:49:43.512Z,77.53
2018-04-14T07:50:24.053Z,77.44
2018-04-14T07:51:04.589Z,78.02
2018-04-14T07:51:45.094Z,77.92
2018-04-14T07:52:25.618Z,78.2
2018-04-14T07:53:06.130Z,78.59
2018-04-14T07:53:46.663Z,78.3
2018-04-14T07:54:27.170Z,78.4
2018-04-14T07:55:07.754Z,78.11
2018-04-14T07:55:48.227Z,78.2
2018-04-14T07:56:28.751Z,78.2
2018-04-14T07:57:09.400Z,78.11
2018-04-14T07:57:49.916Z,78.49
2018-04-14T07:58:30.456Z,78.59
2018-04-14T07:59:10.964Z,77.92
2018-04-14T07:59:51.484Z,78.2
2018-04-14T08:00:32.019Z,78.49
2018-04-14T08:01:12.548Z,79.16
2018-04-14T08:01:53.087Z,78.88
2018-04-14T08:02:33.603Z,78.97
2018-04-14T08:03:14.112Z,78.49
2018-04-14T08:03:54.637Z,78.49
2018-04-14T08:04:35.177Z,78.3
2018-04-14T08:05:15.699Z,78.11
2018-04-14T08:05:56.216Z,78.49
2018-04-14T08:06:36.753Z,78.11
2018-04-14T08:07:17.269Z,78.2
2018-04-14T08:07:57.789Z,77.82
2018-04-14T08:08:38.338Z,78.11
2018-04-14T08:09:18.872Z,78.3
2018-04-14T08:09:59.393Z,78.11
2018-04-14T08:10:39.908Z,77.63
2018-04-14T08:11:20.426Z,77.73
2018-04-14T08:12:00.949Z,77.82
2018-04-14T08:12:41.476Z,77.34
2018-04-14T08:13:22.026Z,76.67
2018-04-14T08:14:02.533Z,76.86
2018-04-14T08:14:43.050Z,76.96
2018-04-14T08:15:23.589Z,76.77
2018-04-14T08:16:04.116Z,77.06
2018-04-14T08:16:44.651Z,77
2018-04-14T08:17:25.188Z,77.09
2018-04-14T08:18:05.729Z,76.86
2018-04-14T08:18:46.288Z,76.9
2018-04-14T08:19:26.842Z,76.1
2018-04-14T08:20:07.399Z,76.71
2018-04-14T08:20:47.927Z,76.42
2018-04-14T08:21:28.491Z,76.04
2018-04-14T08:22:09.058Z,76.52
2018-04-14T08:22:49.596Z,76.62
2018-04-14T08:23:30.110Z,76.9
2018-04-14T08:24:10.638Z,76.86
2018-04-14T08:24:51.180Z,76.9
2018-04-14T08:25:31.708Z,76.52
2018-04-14T08:26:12.216Z,75.95
2018-04-14T08:26:52.739Z,75.85
2018-04-14T08:27:33.301Z,76.04
2018-04-14T08:28:13.852Z,75.75
2018-04-14T08:28:54.384Z,75.75
2018-04-14T08:29:34.912Z,75.95
2018-04-14T08:30:15.423Z,76.23
2018-04-14T08:30:55.929Z,75.65
2018-04-14T08:31:36.440Z,75.85
2018-04-14T08:32:16.973Z,75.65
2018-04-14T08:32:57.508Z,76.62
2018-04-14T08:33:38.189Z,75.75
2018-04-14T08:34:18.703Z,75.65
2018-04-14T08:34:59.260Z,75.08
2018-04-14T08:35:39.742Z,74.89
2018-04-14T08:36:20.267Z,75.08
2018-04-14T08:37:00.856Z,74.79
2018-04-14T08:37:41.553Z,74.6
2018-04-14T08:38:22.081Z,75.08
2018-04-14T08:39:02.606Z,75.18
2018-04-14T08:39:43.207Z,74.69
2018-04-14T08:40:23.841Z,75.08
2018-04-14T08:41:04.372Z,75.02
2018-04-14T08:41:44.925Z,74.69
2018-04-14T08:42:25.492Z,74.83
2018-04-14T08:43:05.988Z,74.93
2018-04-14T08:43:46.517Z,74.73
2018-04-14T08:44:27.036Z,73.97
2018-04-14T08:45:07.557Z,75.12
2018-04-14T08:45:48.128Z,74.44